^^
Meteo Knjazevac Station Historical Data
Daily Summary for March 26, 2021 Units:  Metric    English   Both
Daily Weekly Monthly Yearly Custom
  High: Low: Average:
Temperature: 27.8 °C 15.6 °C 19 °C
Dew Point: 17.9 °C 13.9 °C 15.3 °C
Humidity: 91% 53% 81%
Wind Speed: 12.9km/h 0km/h 5km/h
Wind Gust: 24.1km/h - -
Wind- - SW
Pressure: 1017.8 hPa 1012.8 hPa -
Precipitation: 0 mm    
Historical Graphs
 
 
Tabular Data for March 26, 2021
Time Temperature Dew Point Pressure Wind Wind Speed Wind Gust Humidity Rainfall Rate (Hourly) solar Conditions
00:00 16.9 °C 14.9 °C 1017.8 hPa WSW 3.2 km/h 9.7 km/h 88% 0 mm 0 W/m2
00:10 16.9 °C 14.9 °C 1017.8 hPa WSW 1.6 km/h 6.4 km/h 88% 0 mm 0 W/m2
00:20 16.8 °C 14.8 °C 1017.8 hPa West 3.2 km/h 8 km/h 88% 0 mm 0 W/m2
00:30 16.6 °C 14.8 °C 1017.8 hPa WSW 3.2 km/h 8 km/h 89% 0 mm 0 W/m2
00:40 16.5 °C 14.7 °C 1017.5 hPa SW 4.8 km/h 8 km/h 89% 0 mm 0 W/m2
00:50 16.4 °C 14.6 °C 1017.5 hPa WSW 3.2 km/h 6.4 km/h 89% 0 mm 0 W/m2
01:00 16.4 °C 14.6 °C 1017.5 hPa SW 3.2 km/h 8 km/h 89% 0 mm 0 W/m2
01:10 16.4 °C 14.6 °C 1017.5 hPa SSW 3.2 km/h 4.8 km/h 89% 0 mm 0 W/m2
01:20 16.3 °C 14.5 °C 1017.2 hPa SW 1.6 km/h 4.8 km/h 89% 0 mm 0 W/m2
01:30 16.3 °C 14.5 °C 1017.2 hPa SW 3.2 km/h 4.8 km/h 89% 0 mm 0 W/m2
01:40 16.3 °C 14.5 °C 1017.5 hPa SW 3.2 km/h 6.4 km/h 89% 0 mm 0 W/m2
01:50 16.3 °C 14.5 °C 1017.5 hPa SW 3.2 km/h 6.4 km/h 89% 0 mm 0 W/m2
02:00 16.3 °C 14.5 °C 1017.5 hPa WSW 1.6 km/h 6.4 km/h 89% 0 mm 0 W/m2
02:10 16.3 °C 14.5 °C 1017.5 hPa SW 8 km/h 9.7 km/h 89% 0 mm 0 W/m2
02:20 16.3 °C 14.5 °C 1017.2 hPa SW 3.2 km/h 8 km/h 89% 0 mm 0 W/m2
02:30 16.3 °C 14.5 °C 1017.2 hPa SSW 3.2 km/h 8 km/h 89% 0 mm 0 W/m2
02:40 16.2 °C 14.4 °C 1017.2 hPa SW 3.2 km/h 8 km/h 89% 0 mm 0 W/m2
02:50 16.2 °C 14.4 °C 1017.2 hPa SW 3.2 km/h 8 km/h 89% 0 mm 0 W/m2
03:00 16.2 °C 14.4 °C 1016.8 hPa SW 1.6 km/h 6.4 km/h 89% 0 mm 0 W/m2
03:10 16.2 °C 14.4 °C 1016.8 hPa SW 3.2 km/h 9.7 km/h 89% 0 mm 0 W/m2
03:20 16.1 °C 14.3 °C 1016.8 hPa SSW 3.2 km/h 8 km/h 89% 0 mm 0 W/m2
03:30 16.1 °C 14.3 °C 1016.8 hPa SSW 3.2 km/h 6.4 km/h 89% 0 mm 0 W/m2
03:40 16 °C 14.3 °C 1016.8 hPa SW 4.8 km/h 8 km/h 90% 0 mm 0 W/m2
03:50 15.8 °C 14.2 °C 1017.2 hPa SW 4.8 km/h 8 km/h 90% 0 mm 0 W/m2
04:00 15.7 °C 14.1 °C 1016.8 hPa SW 3.2 km/h 8 km/h 90% 0 mm 0 W/m2
04:10 15.6 °C 13.9 °C 1016.8 hPa Calm   4.8 km/h 90% 0 mm 0 W/m2
04:20 15.7 °C 14.2 °C 1016.8 hPa SSE 1.6 km/h 3.2 km/h 91% 0 mm 0 W/m2
04:30 15.7 °C 14.1 °C 1016.5 hPa Calm   3.2 km/h 90% 0 mm 0 W/m2
04:40 15.7 °C 14.1 °C 1016.8 hPa Calm   3.2 km/h 90% 0 mm 0 W/m2
04:50 15.7 °C 14.1 °C 1016.8 hPa West 1.6 km/h 4.8 km/h 90% 0 mm 0 W/m2
05:00 15.7 °C 14.1 °C 1016.8 hPa West 1.6 km/h 3.2 km/h 90% 0 mm 0 W/m2
05:10 15.7 °C 14.2 °C 1016.8 hPa WSW 1.6 km/h 3.2 km/h 91% 0 mm 0 W/m2
05:20 15.7 °C 14.1 °C 1016.8 hPa SSW 3.2 km/h 6.4 km/h 90% 0 mm 0 W/m2
05:30 15.7 °C 14.1 °C 1016.5 hPa SSW 1.6 km/h 6.4 km/h 90% 0 mm 0 W/m2
05:40 15.7 °C 14.1 °C 1016.5 hPa East 1.6 km/h 4.8 km/h 90% 0 mm 0 W/m2
05:50 15.8 °C 14.2 °C 1016.5 hPa SE 1.6 km/h 3.2 km/h 90% 0 mm 1 W/m2
06:00 15.8 °C 14.2 °C 1016.5 hPa East 1.6 km/h 4.8 km/h 90% 0 mm 3 W/m2
06:10 15.9 °C 14.3 °C 1016.5 hPa SE 3.2 km/h 9.7 km/h 90% 0 mm 10 W/m2
06:20 15.9 °C 14.1 °C 1016.1 hPa Calm   8 km/h 89% 0 mm 17 W/m2
06:30 15.9 °C 14.1 °C 1016.1 hPa South 3.2 km/h 6.4 km/h 89% 0 mm 25 W/m2
06:40 16 °C 14.2 °C 1016.5 hPa SW 1.6 km/h 6.4 km/h 89% 0 mm 43 W/m2
06:50 16.1 °C 14.3 °C 1016.5 hPa SW 1.6 km/h 3.2 km/h 89% 0 mm 36 W/m2
07:00 16.2 °C 14.4 °C 1016.5 hPa SW 4.8 km/h 8 km/h 89% 0 mm 25 W/m2
07:10 16.2 °C 14.4 °C 1016.1 hPa SW 1.6 km/h 4.8 km/h 89% 0 mm 50 W/m2
07:20 16.3 °C 14.5 °C 1016.1 hPa SW 3.2 km/h 8 km/h 89% 0 mm 46 W/m2
07:30 16.3 °C 14.5 °C 1016.5 hPa SW 4.8 km/h 9.7 km/h 89% 0 mm 37 W/m2
07:40 16.4 °C 14.6 °C 1016.5 hPa SW 4.8 km/h 8 km/h 89% 0 mm 52 W/m2
07:50 16.5 °C 14.5 °C 1016.1 hPa SW 3.2 km/h 11.3 km/h 88% 0 mm 86 W/m2
08:00 16.6 °C 14.6 °C 1016.1 hPa SW 4.8 km/h 12.9 km/h 88% 0 mm 127 W/m2
08:10 16.8 °C 14.8 °C 1016.1 hPa SSW 3.2 km/h 8 km/h 88% 0 mm 171 W/m2
08:20 17.1 °C 14.7 °C 1016.5 hPa SSW 4.8 km/h 8 km/h 86% 0 mm 136 W/m2
08:30 17.2 °C 14.7 °C 1016.1 hPa SSW 4.8 km/h 11.3 km/h 85% 0 mm 220 W/m2
08:40 17.5 °C 14.9 °C 1016.1 hPa SSW 4.8 km/h 12.9 km/h 85% 0 mm 289 W/m2
08:50 17.8 °C 15.1 °C 1016.1 hPa SSW 4.8 km/h 11.3 km/h 84% 0 mm 167 W/m2
09:00 17.9 °C 14.9 °C 1016.1 hPa SSW 3.2 km/h 11.3 km/h 83% 0 mm 189 W/m2
09:10 18.1 °C 15.2 °C 1015.8 hPa SSW 3.2 km/h 9.7 km/h 83% 0 mm 247 W/m2
09:20 18.3 °C 15.2 °C 1015.8 hPa SW 8 km/h 11.3 km/h 82% 0 mm 271 W/m2
09:30 18.6 °C 15.3 °C 1015.8 hPa SW 4.8 km/h 12.9 km/h 81% 0 mm 258 W/m2
09:40 18.7 °C 15.2 °C 1016.1 hPa SW 8 km/h 14.5 km/h 80% 0 mm 161 W/m2
09:50 18.7 °C 15.2 °C 1016.1 hPa SW 8 km/h 14.5 km/h 80% 0 mm 330 W/m2
10:00 19.1 °C 15.6 °C 1015.8 hPa SW 11.3 km/h 20.9 km/h 80% 0 mm 412 W/m2
10:10 19.4 °C 15.7 °C 1015.8 hPa SW 11.3 km/h 19.3 km/h 79% 0 mm 279 W/m2
10:20 19.6 °C 15.8 °C 1015.8 hPa SW 8 km/h 16.1 km/h 79% 0 mm 401 W/m2
10:30 19.7 °C 15.8 °C 1015.8 hPa WSW 8 km/h 12.9 km/h 78% 0 mm 273 W/m2
10:40 19.8 °C 15.8 °C 1015.8 hPa SW 8 km/h 16.1 km/h 78% 0 mm 396 W/m2
10:50 20.2 °C 16.1 °C 1015.5 hPa SW 4.8 km/h 12.9 km/h 77% 0 mm 550 W/m2
11:00 20.8 °C 16.2 °C 1015.5 hPa WSW 8 km/h 12.9 km/h 75% 0 mm 368 W/m2
11:10 20.9 °C 16.1 °C 1015.5 hPa SW 4.8 km/h 12.9 km/h 74% 0 mm 335 W/m2
11:20 21.2 °C 16.4 °C 1015.5 hPa SW 4.8 km/h 11.3 km/h 74% 0 mm 322 W/m2
11:30 21.4 °C 16.3 °C 1015.5 hPa WSW 8 km/h 12.9 km/h 73% 0 mm 209 W/m2
11:40 21.4 °C 16.3 °C 1015.5 hPa SW 9.7 km/h 16.1 km/h 73% 0 mm 387 W/m2
11:50 22 °C 16.9 °C 1015.1 hPa WSW 9.7 km/h 12.9 km/h 73% 0 mm 655 W/m2
12:00 22.7 °C 17 °C 1014.8 hPa SW 4.8 km/h 14.5 km/h 70% 0 mm 850 W/m2
12:10 23.3 °C 17.1 °C 1014.8 hPa SW 8 km/h 14.5 km/h 68% 0 mm 499 W/m2
12:20 23.4 °C 17.2 °C 1014.8 hPa SW 4.8 km/h 19.3 km/h 68% 0 mm 856 W/m2
12:30 23.9 °C 17.4 °C 1014.8 hPa WSW 4.8 km/h 12.9 km/h 67% 0 mm 830 W/m2
12:40 24 °C 17 °C 1014.8 hPa South 1.6 km/h 12.9 km/h 65% 0 mm 351 W/m2
12:50 24.2 °C 17.2 °C 1014.4 hPa ESE 3.2 km/h 9.7 km/h 65% 0 mm 854 W/m2
13:00 24.9 °C 17.4 °C 1014.4 hPa SSW 9.7 km/h 16.1 km/h 63% 0 mm 850 W/m2
13:10 25.6 °C 17.4 °C 1014.4 hPa SSW 9.7 km/h 16.1 km/h 61% 0 mm 845 W/m2
13:20 25.7 °C 17.3 °C 1014.4 hPa SSW 11.3 km/h 16.1 km/h 60% 0 mm 817 W/m2
13:30 25.9 °C 17.6 °C 1014.1 hPa SW 9.7 km/h 17.7 km/h 60% 0 mm 829 W/m2
13:40 26.3 °C 17.9 °C 1014.1 hPa WSW 8 km/h 14.5 km/h 60% 0 mm 393 W/m2
13:50 26.6 °C 17.9 °C 1014.1 hPa WSW 8 km/h 19.3 km/h 59% 0 mm 807 W/m2
14:00 26.6 °C 17.7 °C 1013.8 hPa SW 11.3 km/h 19.3 km/h 58% 0 mm 794 W/m2
14:10 26.8 °C 17.8 °C 1013.8 hPa SW 11.3 km/h 17.7 km/h 58% 0 mm 779 W/m2
14:20 27 °C 17.5 °C 1013.4 hPa SW 11.3 km/h 17.7 km/h 56% 0 mm 763 W/m2
14:30 27.3 °C 17.4 °C 1013.4 hPa SW 8 km/h 19.3 km/h 55% 0 mm 746 W/m2
14:40 27.5 °C 17.4 °C 1013.1 hPa SW 8 km/h 19.3 km/h 54% 0 mm 727 W/m2
14:50 27.7 °C 17.6 °C 1013.1 hPa WSW 9.7 km/h 24.1 km/h 54% 0 mm 707 W/m2
15:00 27.8 °C 17.7 °C 1013.1 hPa SW 9.7 km/h 20.9 km/h 54% 0 mm 685 W/m2
15:10 27.8 °C 17.3 °C 1012.8 hPa SW 12.9 km/h 20.9 km/h 53% 0 mm 663 W/m2
Knjazevac, Serbia
Compliments of Weather Underground - 2 mb